Time;durP1;ratioP1;P1;durP2;ratioP2;P2;SDS_P1;SDS_P2;PMS_P1;PMS_P2;Temp;Humidity;BMP_temperature;BMP_pressure;BME280_temperature;BME280_humidity;BME280_pressure;Samples;Min_cycle;Max_cycle;Signal;HPM_P1;HPM_P2
2021/12/31 00:00:08;;;;;;;3.97;3.43;;;;;;;;;;5087888;28;20172;-58
2021/12/31 00:02:34;;;;;;;5.63;3.47;;;;;;;;;;5086960;28;20731;-58
2021/12/31 00:05:00;;;;;;;5.70;3.40;;;;;;;;;;5089475;28;20168;-58
2021/12/31 00:07:26;;;;;;;6.67;3.00;;;;;;;;;;5070385;28;20586;-58
2021/12/31 00:09:58;;;;;;;3.33;3.03;;;;;;;;;;5070323;28;20183;-58
2021/12/31 00:12:24;;;;;;;5.63;3.10;;;;;;;;;;5088116;28;20181;-57
2021/12/31 00:14:51;;;;;;;3.90;3.10;;;;;;;;;;5089036;28;20682;-58
2021/12/31 00:17:17;;;;;;;3.80;2.80;;;;;;;;;;5087084;28;20253;-57
2021/12/31 00:19:45;;;;;;;5.23;3.13;;;;;;;;;;5088579;28;20207;-58
2021/12/31 00:22:48;;;;;;;5.37;3.37;;;;;;;;;;5088074;28;20168;-57
2021/12/31 00:25:10;;;;;;;4.23;2.83;;;;;;;;;;5088693;28;20290;-58
2021/12/31 00:27:36;;;;;;;4.87;2.80;;;;;;;;;;5088609;28;20576;-58
2021/12/31 00:30:02;;;;;;;3.93;3.30;;;;;;;;;;5088128;28;20183;-58
2021/12/31 00:32:28;;;;;;;5.37;2.90;;;;;;;;;;5084044;28;20187;-57
2021/12/31 00:34:54;;;;;;;6.10;2.70;;;;;;;;;;5087929;28;20176;-57
2021/12/31 00:37:27;;;;;;;7.37;2.97;;;;;;;;;;5088437;28;20221;-57
2021/12/31 00:39:53;;;;;;;5.00;2.80;;;;;;;;;;5086145;28;20281;-57
2021/12/31 00:42:19;;;;;;;4.87;2.90;;;;;;;;;;5087652;28;20532;-57
2021/12/31 00:44:45;;;;;;;7.13;2.70;;;;;;;;;;5069428;28;20180;-58
2021/12/31 00:47:11;;;;;;;5.70;2.60;;;;;;;;;;5083027;28;20191;-57
2021/12/31 00:49:37;;;;;;;2.80;2.30;;;;;;;;;;5087861;28;20202;-57
2021/12/31 00:52:03;;;;;;;3.53;2.50;;;;;;;;;;5086384;28;20173;-57
2021/12/31 00:54:29;;;;;;;4.20;2.50;;;;;;;;;;5067552;28;20204;-57
2021/12/31 00:57:02;;;;;;;3.20;2.70;;;;;;;;;;5068305;28;20221;-57
2021/12/31 00:59:28;;;;;;;2.53;2.33;;;;;;;;;;5066701;28;20178;-57
2021/12/31 01:01:54;;;;;;;3.83;2.57;;;;;;;;;;5053360;28;20185;-57
2021/12/31 01:04:21;;;;;;;4.17;2.40;;;;;;;;;;5049634;28;20239;-57
2021/12/31 01:06:48;;;;;;;3.37;2.30;;;;;;;;;;5068104;28;20181;-58
2021/12/31 01:09:14;;;;;;;4.77;2.83;;;;;;;;;;5066947;28;20184;-57
2021/12/31 01:11:42;;;;;;;3.43;2.20;;;;;;;;;;5066564;28;20299;-58
2021/12/31 01:14:19;;;;;;;2.90;1.77;;;;;;;;;;5067351;28;20203;-57
2021/12/31 01:16:50;;;;;;;3.77;2.47;;;;;;;;;;5049302;28;20207;-57
2021/12/31 01:21:42;;;;;;;2.23;2.10;;;;;;;;;;5067995;28;20224;-57
2021/12/31 01:24:11;;;;;;;5.40;2.17;;;;;;;;;;5066793;28;20182;-57
2021/12/31 01:26:37;;;;;;;4.33;2.50;;;;;;;;;;5067694;28;20460;-57
2021/12/31 01:29:03;;;;;;;3.33;2.20;;;;;;;;;;5067185;28;20215;-57
2021/12/31 01:31:29;;;;;;;2.27;2.07;;;;;;;;;;5065605;28;20251;-62
2021/12/31 01:33:55;;;;;;;6.10;2.03;;;;;;;;;;5066845;28;20198;-57
2021/12/31 01:36:21;;;;;;;4.10;2.20;;;;;;;;;;5067787;28;20169;-58
2021/12/31 01:38:47;;;;;;;2.70;1.93;;;;;;;;;;5062180;28;20186;-58
2021/12/31 01:41:13;;;;;;;4.33;2.70;;;;;;;;;;5064503;28;20647;-57
2021/12/31 01:43:40;;;;;;;3.83;2.50;;;;;;;;;;5066286;28;20558;-58
2021/12/31 01:46:11;;;;;;;2.47;2.27;;;;;;;;;;5070648;28;20181;-57
2021/12/31 01:48:49;;;;;;;3.10;2.10;;;;;;;;;;5066135;28;20268;-58
2021/12/31 01:51:15;;;;;;;3.33;2.37;;;;;;;;;;5067576;28;20402;-57
2021/12/31 01:53:41;;;;;;;3.20;2.30;;;;;;;;;;5062291;28;20303;-57
2021/12/31 01:56:08;;;;;;;2.97;2.30;;;;;;;;;;5046573;28;20207;-58
2021/12/31 01:58:34;;;;;;;2.93;2.63;;;;;;;;;;5067733;28;20227;-58
2021/12/31 02:01:04;;;;;;;2.40;2.17;;;;;;;;;;5065858;28;20201;-58
2021/12/31 02:03:30;;;;;;;3.50;2.03;;;;;;;;;;5064557;28;20180;-58
2021/12/31 02:05:56;;;;;;;2.47;2.10;;;;;;;;;;5068461;28;20797;-58
2021/12/31 02:08:22;;;;;;;3.53;2.67;;;;;;;;;;5066652;28;20613;-57
2021/12/31 02:10:51;;;;;;;2.87;2.40;;;;;;;;;;5066985;28;20188;-58
2021/12/31 02:13:18;;;;;;;2.07;1.87;;;;;;;;;;5066491;28;20694;-57
2021/12/31 02:15:45;;;;;;;3.87;2.33;;;;;;;;;;5066352;28;20640;-57
2021/12/31 02:18:11;;;;;;;3.07;2.23;;;;;;;;;;5058937;28;20205;-57
2021/12/31 02:20:41;;;;;;;3.33;2.23;;;;;;;;;;5066858;28;20249;-57
2021/12/31 02:23:13;;;;;;;6.27;2.53;;;;;;;;;;5059209;28;20181;-57
2021/12/31 02:25:39;;;;;;;3.73;2.50;;;;;;;;;;5066141;28;20180;-57
2021/12/31 02:28:06;;;;;;;2.80;2.60;;;;;;;;;;5060705;28;20377;-57
2021/12/31 02:30:32;;;;;;;2.97;2.60;;;;;;;;;;5066818;28;20714;-57
2021/12/31 02:32:59;;;;;;;8.07;3.23;;;;;;;;;;5061064;28;20622;-57
2021/12/31 02:35:25;;;;;;;4.63;2.60;;;;;;;;;;5045948;28;20204;-57
2021/12/31 02:37:51;;;;;;;3.23;2.17;;;;;;;;;;5051436;28;20173;-57
2021/12/31 02:40:18;;;;;;;2.33;2.13;;;;;;;;;;5063130;28;20514;-57
2021/12/31 02:42:45;;;;;;;5.07;2.47;;;;;;;;;;5062248;28;20555;-57
2021/12/31 02:45:11;;;;;;;5.07;2.73;;;;;;;;;;5063957;28;20187;-57
2021/12/31 02:47:42;;;;;;;2.03;1.90;;;;;;;;;;5062277;28;20195;-57
2021/12/31 02:50:11;;;;;;;3.20;2.30;;;;;;;;;;5047820;28;20169;-57
2021/12/31 02:52:37;;;;;;;2.53;2.30;;;;;;;;;;5065141;28;20757;-57
2021/12/31 02:55:03;;;;;;;6.70;2.57;;;;;;;;;;5075817;28;20211;-57
2021/12/31 02:57:30;;;;;;;3.77;2.13;;;;;;;;;;5053334;28;20663;-57
2021/12/31 02:59:56;;;;;;;2.67;2.40;;;;;;;;;;5085720;28;20726;-57
2021/12/31 03:02:24;;;;;;;3.33;2.80;;;;;;;;;;5089673;28;20174;-57
2021/12/31 03:04:54;;;;;;;2.37;2.17;;;;;;;;;;5084333;28;20175;-57
2021/12/31 03:07:21;;;;;;;2.53;2.23;;;;;;;;;;5090055;28;20214;-57
2021/12/31 03:09:49;;;;;;;2.30;2.10;;;;;;;;;;5095725;28;20274;-57
2021/12/31 03:12:15;;;;;;;6.00;2.60;;;;;;;;;;5108449;28;20182;-57
2021/12/31 03:14:45;;;;;;;2.83;2.50;;;;;;;;;;5087896;28;20192;-57
2021/12/31 03:17:13;;;;;;;4.20;2.40;;;;;;;;;;5079494;28;20200;-57
2021/12/31 03:19:39;;;;;;;2.50;2.20;;;;;;;;;;5073415;28;20271;-58
2021/12/31 03:22:06;;;;;;;2.60;2.37;;;;;;;;;;5090497;28;20634;-57
2021/12/31 03:24:32;;;;;;;4.30;2.60;;;;;;;;;;5089502;28;20741;-57
2021/12/31 03:26:59;;;;;;;4.63;3.40;;;;;;;;;;5089831;28;20698;-57
2021/12/31 03:29:25;;;;;;;2.90;1.90;;;;;;;;;;5090502;28;20260;-57
2021/12/31 03:31:51;;;;;;;3.00;2.63;;;;;;;;;;5089602;28;20184;-57
2021/12/31 03:34:17;;;;;;;6.00;2.77;;;;;;;;;;5089245;28;20249;-58
2021/12/31 03:36:43;;;;;;;6.00;2.97;;;;;;;;;;5101781;28;20622;-57
2021/12/31 03:39:09;;;;;;;4.83;2.27;;;;;;;;;;5088926;28;20188;-57
2021/12/31 03:41:36;;;;;;;2.67;2.47;;;;;;;;;;5089798;28;20648;-58
2021/12/31 03:44:02;;;;;;;2.33;2.10;;;;;;;;;;5088257;28;20187;-57
2021/12/31 03:46:28;;;;;;;3.87;2.70;;;;;;;;;;5089180;28;20576;-58
2021/12/31 03:48:54;;;;;;;3.70;2.30;;;;;;;;;;5088743;28;20286;-57
2021/12/31 03:51:20;;;;;;;3.73;2.40;;;;;;;;;;5078434;28;20204;-57
2021/12/31 03:53:46;;;;;;;2.83;2.27;;;;;;;;;;5063645;28;20207;-57
2021/12/31 03:56:13;;;;;;;2.57;2.10;;;;;;;;;;5089259;28;20243;-57
2021/12/31 03:58:39;;;;;;;3.70;2.47;;;;;;;;;;5068483;28;20736;-57
2021/12/31 04:01:05;;;;;;;3.20;2.23;;;;;;;;;;5071024;28;20179;-57
2021/12/31 04:03:32;;;;;;;3.40;1.93;;;;;;;;;;5087405;28;20187;-57
2021/12/31 04:05:58;;;;;;;4.33;2.67;;;;;;;;;;5089806;28;20699;-58
2021/12/31 04:08:24;;;;;;;3.57;2.33;;;;;;;;;;5089204;28;20572;-58
2021/12/31 04:10:50;;;;;;;2.17;2.00;;;;;;;;;;5088854;28;20184;-58
2021/12/31 04:13:16;;;;;;;2.63;2.30;;;;;;;;;;5086113;28;20198;-57
2021/12/31 04:15:42;;;;;;;4.60;2.13;;;;;;;;;;5082427;28;20529;-58
2021/12/31 04:18:08;;;;;;;2.60;2.40;;;;;;;;;;5088654;28;20184;-57
2021/12/31 04:20:41;;;;;;;2.70;2.27;;;;;;;;;;5089474;28;20189;-58
2021/12/31 04:23:14;;;;;;;2.33;2.10;;;;;;;;;;5083885;28;20596;-57
2021/12/31 04:25:41;;;;;;;3.13;2.40;;;;;;;;;;5088300;28;20221;-58
2021/12/31 04:28:08;;;;;;;2.97;2.63;;;;;;;;;;5083959;28;20188;-58
2021/12/31 04:30:34;;;;;;;3.27;2.80;;;;;;;;;;5088684;28;20176;-58
2021/12/31 04:33:01;;;;;;;4.37;3.03;;;;;;;;;;5087742;28;20566;-57
2021/12/31 04:35:27;;;;;;;3.07;2.37;;;;;;;;;;5073739;28;20628;-57
2021/12/31 04:37:53;;;;;;;3.47;1.97;;;;;;;;;;5087163;28;20604;-58
2021/12/31 04:40:19;;;;;;;3.07;2.30;;;;;;;;;;5075101;28;20181;-58
2021/12/31 04:42:46;;;;;;;2.57;1.80;;;;;;;;;;5082231;28;20271;-57
2021/12/31 04:45:13;;;;;;;2.73;2.03;;;;;;;;;;5086340;28;20229;-58
2021/12/31 04:47:39;;;;;;;3.50;2.27;;;;;;;;;;5087801;28;20691;-58
2021/12/31 04:50:06;;;;;;;2.13;1.93;;;;;;;;;;5087234;28;20649;-57
2021/12/31 04:52:32;;;;;;;2.30;2.10;;;;;;;;;;5078025;28;20219;-57
2021/12/31 04:54:58;;;;;;;4.67;2.20;;;;;;;;;;5087050;28;20211;-57
2021/12/31 04:57:25;;;;;;;2.47;2.23;;;;;;;;;;5084266;28;20200;-57
2021/12/31 04:59:51;;;;;;;2.57;2.20;;;;;;;;;;5086155;28;20214;-57
2021/12/31 05:02:17;;;;;;;3.57;2.53;;;;;;;;;;5085825;28;20180;-57
2021/12/31 05:04:44;;;;;;;4.63;2.20;;;;;;;;;;5086089;28;20184;-57
2021/12/31 05:07:11;;;;;;;3.80;2.10;;;;;;;;;;5086724;28;20223;-58
2021/12/31 05:09:37;;;;;;;2.37;2.00;;;;;;;;;;5087545;28;20183;-57
2021/12/31 05:12:05;;;;;;;2.27;1.93;;;;;;;;;;5081511;28;20175;-58
2021/12/31 05:14:31;;;;;;;2.70;2.27;;;;;;;;;;5078418;28;20668;-57
2021/12/31 05:17:00;;;;;;;2.60;2.10;;;;;;;;;;5067490;28;20638;-57
2021/12/31 05:19:26;;;;;;;3.30;2.10;;;;;;;;;;5084662;28;20179;-57
2021/12/31 05:21:52;;;;;;;2.47;2.23;;;;;;;;;;5084410;28;20183;-57
2021/12/31 05:24:18;;;;;;;4.03;2.10;;;;;;;;;;5085198;28;20233;-57
2021/12/31 05:26:45;;;;;;;2.20;1.97;;;;;;;;;;5079615;28;20188;-58
2021/12/31 05:29:11;;;;;;;3.23;2.00;;;;;;;;;;5085907;28;20233;-57
2021/12/31 05:31:37;;;;;;;3.33;2.30;;;;;;;;;;5085803;28;20183;-57
2021/12/31 05:34:03;;;;;;;2.93;2.60;;;;;;;;;;5067961;28;20210;-58
2021/12/31 05:36:29;;;;;;;5.70;2.33;;;;;;;;;;5086614;28;20485;-57
2021/12/31 05:38:55;;;;;;;3.47;2.13;;;;;;;;;;5085437;28;20181;-58
2021/12/31 05:41:21;;;;;;;3.17;1.93;;;;;;;;;;5084795;28;20187;-58
2021/12/31 05:43:47;;;;;;;4.43;2.57;;;;;;;;;;5084684;28;20178;-58
2021/12/31 05:46:13;;;;;;;2.73;2.10;;;;;;;;;;5086927;28;20255;-57
2021/12/31 05:48:39;;;;;;;4.00;2.03;;;;;;;;;;5085354;28;20282;-58
2021/12/31 05:51:05;;;;;;;2.93;2.03;;;;;;;;;;5086038;28;20191;-58
2021/12/31 05:53:31;;;;;;;3.90;2.30;;;;;;;;;;5073776;28;20655;-58
2021/12/31 05:55:57;;;;;;;3.33;2.10;;;;;;;;;;5078564;28;20173;-57
2021/12/31 05:58:23;;;;;;;4.47;2.37;;;;;;;;;;5084584;28;20226;-57
2021/12/31 06:00:49;;;;;;;4.20;2.07;;;;;;;;;;5086111;28;20178;-57
2021/12/31 06:03:15;;;;;;;1.93;1.80;;;;;;;;;;5072629;28;20172;-58
2021/12/31 06:05:41;;;;;;;4.53;2.30;;;;;;;;;;5086274;28;20178;-57
2021/12/31 06:08:07;;;;;;;2.30;2.03;;;;;;;;;;5091051;28;20183;-58
2021/12/31 06:10:33;;;;;;;3.87;2.33;;;;;;;;;;5082669;28;20201;-57
2021/12/31 06:13:00;;;;;;;2.17;1.90;;;;;;;;;;5071149;28;20872;-57
2021/12/31 06:15:28;;;;;;;1.77;1.67;;;;;;;;;;5086700;28;20186;-57
2021/12/31 06:17:54;;;;;;;3.53;1.90;;;;;;;;;;5085467;28;20171;-57
2021/12/31 06:20:20;;;;;;;1.93;1.80;;;;;;;;;;5084566;28;20266;-57
2021/12/31 06:22:46;;;;;;;2.07;1.87;;;;;;;;;;5085605;28;20187;-57
2021/12/31 06:25:13;;;;;;;3.80;1.90;;;;;;;;;;5079946;28;20180;-57
2021/12/31 06:27:39;;;;;;;1.90;1.80;;;;;;;;;;5090505;28;20670;-57
2021/12/31 06:30:05;;;;;;;2.17;1.93;;;;;;;;;;5087729;28;20175;-57
2021/12/31 06:32:31;;;;;;;5.00;2.63;;;;;;;;;;5070038;28;20234;-57
2021/12/31 06:34:57;;;;;;;2.60;2.20;;;;;;;;;;5069402;28;20204;-57
2021/12/31 06:37:23;;;;;;;2.60;2.10;;;;;;;;;;5089145;28;20188;-57
2021/12/31 06:39:49;;;;;;;2.83;1.93;;;;;;;;;;5087616;28;20586;-57
2021/12/31 06:42:15;;;;;;;5.43;2.77;;;;;;;;;;5090306;28;20546;-57
2021/12/31 06:44:41;;;;;;;3.23;1.90;;;;;;;;;;5068869;28;20201;-58
2021/12/31 06:47:08;;;;;;;3.20;2.10;;;;;;;;;;5065837;28;20220;-57
2021/12/31 06:49:34;;;;;;;3.67;2.37;;;;;;;;;;5088484;28;20197;-57
2021/12/31 06:52:00;;;;;;;3.53;2.30;;;;;;;;;;5069163;28;20620;-58
2021/12/31 06:54:26;;;;;;;1.83;1.73;;;;;;;;;;5085403;28;20297;-57
2021/12/31 06:56:53;;;;;;;2.17;1.90;;;;;;;;;;5089149;28;20233;-57
2021/12/31 06:59:19;;;;;;;3.87;2.10;;;;;;;;;;5087993;28;20173;-57
2021/12/31 07:01:45;;;;;;;3.70;1.90;;;;;;;;;;5070340;28;20583;-57
2021/12/31 07:04:11;;;;;;;2.60;2.20;;;;;;;;;;5087587;28;20418;-57
2021/12/31 07:06:37;;;;;;;2.67;2.20;;;;;;;;;;5088150;28;20189;-57
2021/12/31 07:09:03;;;;;;;4.20;2.53;;;;;;;;;;5086262;28;20642;-57
2021/12/31 07:11:29;;;;;;;2.87;2.20;;;;;;;;;;5089290;28;20508;-57
2021/12/31 07:13:56;;;;;;;3.67;2.10;;;;;;;;;;5088473;28;20231;-57
2021/12/31 07:16:22;;;;;;;1.70;1.60;;;;;;;;;;5087875;28;20255;-57
2021/12/31 07:18:48;;;;;;;3.30;2.17;;;;;;;;;;5087914;28;20183;-57
2021/12/31 07:21:14;;;;;;;3.13;2.07;;;;;;;;;;5088049;28;20172;-57
2021/12/31 07:23:40;;;;;;;3.03;2.30;;;;;;;;;;5085392;28;20251;-57
2021/12/31 07:26:07;;;;;;;3.17;2.03;;;;;;;;;;5087170;28;20180;-57
2021/12/31 07:28:33;;;;;;;2.83;2.03;;;;;;;;;;5085551;28;20191;-57
2021/12/31 07:31:00;;;;;;;2.50;2.00;;;;;;;;;;5085328;28;20266;-57
2021/12/31 07:33:27;;;;;;;1.90;1.80;;;;;;;;;;5087906;28;20262;-57
2021/12/31 07:35:54;;;;;;;3.47;2.20;;;;;;;;;;5087869;28;20186;-57
2021/12/31 07:38:21;;;;;;;5.97;3.40;;;;;;;;;;5068339;28;20586;-57
2021/12/31 07:40:51;;;;;;;4.97;2.00;;;;;;;;;;5085799;28;20253;-57
2021/12/31 07:43:17;;;;;;;2.60;2.20;;;;;;;;;;5088184;28;20182;-57
2021/12/31 07:45:44;;;;;;;2.83;1.93;;;;;;;;;;5087489;28;20191;-57
2021/12/31 07:48:10;;;;;;;4.40;1.63;;;;;;;;;;5087116;28;20187;-57
2021/12/31 07:50:36;;;;;;;4.00;2.43;;;;;;;;;;5088514;28;20665;-57
2021/12/31 07:53:03;;;;;;;2.03;1.83;;;;;;;;;;5085353;28;20243;-56
2021/12/31 07:55:29;;;;;;;3.23;2.20;;;;;;;;;;5084589;28;20223;-57
2021/12/31 07:57:55;;;;;;;4.23;1.93;;;;;;;;;;5081821;28;20223;-57
2021/12/31 08:00:21;;;;;;;1.73;1.63;;;;;;;;;;5068714;28;20179;-57
2021/12/31 08:02:48;;;;;;;4.20;2.17;;;;;;;;;;5084127;28;20205;-57
2021/12/31 08:05:15;;;;;;;2.47;2.10;;;;;;;;;;5089872;28;20274;-57
2021/12/31 08:07:41;;;;;;;2.53;2.00;;;;;;;;;;5084326;28;20647;-57
2021/12/31 08:10:07;;;;;;;2.80;2.20;;;;;;;;;;5082806;28;20221;-57
2021/12/31 08:12:36;;;;;;;2.33;2.13;;;;;;;;;;5085051;28;20215;-57
2021/12/31 08:15:06;;;;;;;4.00;1.87;;;;;;;;;;5070211;28;20195;-57
2021/12/31 08:17:32;;;;;;;1.80;1.70;;;;;;;;;;5086955;28;20214;-57
2021/12/31 08:19:58;;;;;;;2.67;2.37;;;;;;;;;;5088476;28;20233;-57
2021/12/31 08:22:24;;;;;;;2.93;2.00;;;;;;;;;;5070428;28;20599;-57
2021/12/31 08:24:51;;;;;;;2.67;1.90;;;;;;;;;;5087709;28;20192;-57
2021/12/31 08:27:17;;;;;;;3.47;2.40;;;;;;;;;;5089882;28;20222;-57
2021/12/31 08:29:43;;;;;;;2.40;2.10;;;;;;;;;;5089409;28;20209;-57
2021/12/31 08:32:09;;;;;;;4.50;2.23;;;;;;;;;;5083880;28;20179;-57
2021/12/31 08:34:35;;;;;;;3.47;1.97;;;;;;;;;;5089235;28;20707;-57
2021/12/31 08:37:02;;;;;;;4.20;2.20;;;;;;;;;;5088945;28;20176;-57
2021/12/31 08:39:28;;;;;;;2.20;1.93;;;;;;;;;;5086929;28;20217;-57
2021/12/31 08:41:54;;;;;;;3.37;2.27;;;;;;;;;;5088274;28;20214;-56
2021/12/31 08:44:20;;;;;;;2.80;2.13;;;;;;;;;;5087779;28;20180;-57
2021/12/31 08:46:46;;;;;;;2.70;2.50;;;;;;;;;;5079584;28;20187;-56
2021/12/31 08:49:13;;;;;;;4.03;2.43;;;;;;;;;;5088226;28;20188;-57
2021/12/31 08:51:39;;;;;;;2.33;2.13;;;;;;;;;;5086284;28;20291;-56
2021/12/31 08:54:05;;;;;;;2.83;2.23;;;;;;;;;;5086267;28;20557;-56
2021/12/31 08:56:31;;;;;;;3.37;2.50;;;;;;;;;;5087139;28;20565;-56
2021/12/31 08:58:57;;;;;;;3.23;1.90;;;;;;;;;;5070090;28;20176;-56
2021/12/31 09:01:23;;;;;;;3.80;2.37;;;;;;;;;;5082585;28;20172;-56
2021/12/31 09:03:50;;;;;;;3.40;2.17;;;;;;;;;;5085342;28;20183;-57
2021/12/31 09:06:19;;;;;;;2.60;2.40;;;;;;;;;;5086071;28;20179;-56
2021/12/31 09:08:46;;;;;;;3.83;2.83;;;;;;;;;;5082346;28;20634;-56
2021/12/31 09:11:12;;;;;;;4.23;2.70;;;;;;;;;;5078595;28;20240;-57
2021/12/31 09:13:38;;;;;;;2.63;2.43;;;;;;;;;;5071634;28;20708;-57
2021/12/31 09:16:05;;;;;;;2.77;2.27;;;;;;;;;;5082015;28;20770;-57
2021/12/31 09:18:31;;;;;;;2.73;2.50;;;;;;;;;;5086326;28;20200;-56
2021/12/31 09:20:57;;;;;;;2.30;2.10;;;;;;;;;;5067363;28;20172;-56
2021/12/31 09:23:23;;;;;;;3.23;2.53;;;;;;;;;;5069275;28;20213;-57
2021/12/31 09:25:50;;;;;;;4.00;2.90;;;;;;;;;;5081234;28;20761;-57
2021/12/31 09:28:16;;;;;;;6.37;2.83;;;;;;;;;;5085656;28;20203;-57
2021/12/31 09:30:43;;;;;;;2.30;2.10;;;;;;;;;;5067944;28;20249;-57
2021/12/31 09:33:09;;;;;;;2.40;2.20;;;;;;;;;;5084909;28;20673;-57
2021/12/31 09:35:36;;;;;;;2.90;2.60;;;;;;;;;;5081619;28;20180;-57
2021/12/31 09:38:08;;;;;;;2.70;2.50;;;;;;;;;;5083748;28;20175;-57
2021/12/31 09:40:34;;;;;;;3.43;2.70;;;;;;;;;;5086061;28;20164;-57
2021/12/31 09:43:00;;;;;;;5.83;2.63;;;;;;;;;;5089439;28;20813;-57
2021/12/31 09:45:27;;;;;;;2.93;2.33;;;;;;;;;;5089677;28;20658;-57
2021/12/31 09:47:58;;;;;;;3.30;2.97;;;;;;;;;;5086101;28;20192;-57
2021/12/31 09:50:24;;;;;;;7.43;2.57;;;;;;;;;;5081654;28;20196;-57
2021/12/31 09:52:51;;;;;;;4.17;2.70;;;;;;;;;;5086227;28;20215;-57
2021/12/31 09:55:34;;;;;;;3.47;2.30;;;;;;;;;;5082858;28;20172;-57
2021/12/31 09:58:00;;;;;;;6.63;2.50;;;;;;;;;;5080703;28;20195;-57
2021/12/31 10:00:27;;;;;;;3.13;2.40;;;;;;;;;;5083779;28;20525;-57
2021/12/31 10:03:08;;;;;;;2.40;2.20;;;;;;;;;;5085500;28;20553;-57
2021/12/31 10:05:48;;;;;;;3.80;2.83;;;;;;;;;;5083333;28;20187;-56
2021/12/31 10:08:25;;;;;;;2.50;2.30;;;;;;;;;;5085666;28;20174;-57
2021/12/31 10:11:04;;;;;;;4.10;2.63;;;;;;;;;;5087414;28;20201;-57
2021/12/31 10:13:31;;;;;;;7.80;3.23;;;;;;;;;;5077869;28;20206;-57
2021/12/31 10:15:57;;;;;;;4.17;2.70;;;;;;;;;;5080472;28;20172;-57
2021/12/31 10:18:34;;;;;;;6.07;3.17;;;;;;;;;;5063532;28;20180;-57
2021/12/31 10:21:00;;;;;;;3.27;2.70;;;;;;;;;;5078366;28;20183;-57
2021/12/31 10:23:26;;;;;;;4.13;2.50;;;;;;;;;;5063769;28;20276;-57
2021/12/31 10:26:06;;;;;;;3.53;2.43;;;;;;;;;;5074052;28;20179;-57
2021/12/31 10:28:32;;;;;;;3.10;2.80;;;;;;;;;;5084889;28;20263;-57
2021/12/31 10:31:11;;;;;;;5.17;2.67;;;;;;;;;;5084452;28;20176;-57
2021/12/31 10:33:42;;;;;;;2.90;2.70;;;;;;;;;;5082950;28;20203;-57
2021/12/31 10:36:08;;;;;;;6.07;2.83;;;;;;;;;;5084218;28;20168;-57
2021/12/31 10:38:39;;;;;;;2.93;2.73;;;;;;;;;;5083631;28;20184;-57
2021/12/31 10:41:06;;;;;;;5.20;3.10;;;;;;;;;;5057492;28;20168;-57
2021/12/31 10:43:32;;;;;;;5.57;2.80;;;;;;;;;;5078452;28;20226;-57
2021/12/31 10:46:03;;;;;;;3.97;2.97;;;;;;;;;;5084918;28;20187;-57
2021/12/31 10:48:39;;;;;;;2.70;2.50;;;;;;;;;;5084873;28;20194;-57
2021/12/31 10:51:06;;;;;;;2.70;2.50;;;;;;;;;;5084416;28;20187;-57
2021/12/31 10:53:37;;;;;;;3.57;3.10;;;;;;;;;;5085456;28;20572;-57
2021/12/31 10:56:06;;;;;;;5.43;3.10;;;;;;;;;;5075821;28;20723;-57
2021/12/31 10:58:32;;;;;;;3.97;2.60;;;;;;;;;;5067214;28;20198;-57
2021/12/31 11:00:59;;;;;;;3.17;2.87;;;;;;;;;;5085454;28;20220;-57
2021/12/31 11:03:26;;;;;;;4.23;2.70;;;;;;;;;;5084714;28;20674;-56
2021/12/31 11:05:53;;;;;;;4.70;2.97;;;;;;;;;;5084327;28;20663;-57
2021/12/31 11:08:20;;;;;;;3.70;2.97;;;;;;;;;;5072612;28;20180;-57
2021/12/31 11:10:46;;;;;;;4.03;2.63;;;;;;;;;;5076171;28;20545;-57
2021/12/31 11:13:14;;;;;;;6.03;2.73;;;;;;;;;;5076626;28;20183;-57
2021/12/31 11:15:44;;;;;;;2.83;2.63;;;;;;;;;;5089487;28;20176;-57
2021/12/31 11:18:12;;;;;;;3.77;2.60;;;;;;;;;;5088423;28;20614;-57
2021/12/31 11:20:38;;;;;;;3.17;2.87;;;;;;;;;;5088593;28;20188;-57
2021/12/31 11:23:04;;;;;;;2.90;2.30;;;;;;;;;;5089201;28;20237;-57
2021/12/31 11:25:30;;;;;;;3.57;3.27;;;;;;;;;;5086438;28;20258;-56
2021/12/31 11:27:57;;;;;;;2.43;2.23;;;;;;;;;;5079501;28;20635;-56
2021/12/31 11:30:29;;;;;;;2.60;2.40;;;;;;;;;;5082198;28;20176;-56
2021/12/31 11:32:57;;;;;;;3.17;2.43;;;;;;;;;;5075268;28;20177;-57
2021/12/31 11:35:35;;;;;;;3.53;2.70;;;;;;;;;;5089382;28;20712;-56
2021/12/31 11:38:03;;;;;;;2.90;2.70;;;;;;;;;;5092310;28;20631;-57
2021/12/31 11:40:30;;;;;;;3.07;2.77;;;;;;;;;;5085659;28;20577;-57
2021/12/31 11:43:15;;;;;;;3.47;2.13;;;;;;;;;;5086228;28;20168;-56
2021/12/31 11:45:41;;;;;;;2.80;2.60;;;;;;;;;;5067082;28;20211;-57
2021/12/31 11:48:28;;;;;;;3.70;2.37;;;;;;;;;;5083567;28;20234;-56
2021/12/31 11:51:05;;;;;;;2.63;2.43;;;;;;;;;;5062468;28;20195;-56
2021/12/31 11:53:31;;;;;;;2.63;2.20;;;;;;;;;;5078576;28;20215;-57
2021/12/31 11:55:57;;;;;;;2.50;2.30;;;;;;;;;;5088369;28;20199;-56
2021/12/31 11:58:53;;;;;;;3.00;2.50;;;;;;;;;;5078095;28;20179;-56
2021/12/31 12:01:37;;;;;;;2.80;2.60;;;;;;;;;;5063336;28;20188;-56
2021/12/31 12:04:22;;;;;;;2.67;2.33;;;;;;;;;;5087166;28;20183;-56
2021/12/31 12:07:01;;;;;;;4.43;2.80;;;;;;;;;;5086127;28;20719;-57
2021/12/31 12:09:36;;;;;;;4.07;2.90;;;;;;;;;;5082826;28;20184;-56
2021/12/31 12:12:02;;;;;;;2.93;2.50;;;;;;;;;;5084672;28;20187;-56
2021/12/31 12:14:32;;;;;;;2.60;2.30;;;;;;;;;;5082068;28;20499;-56
2021/12/31 12:16:58;;;;;;;4.87;2.43;;;;;;;;;;5083437;28;20183;-57
2021/12/31 12:19:43;;;;;;;5.03;2.00;;;;;;;;;;5081807;28;20267;-56
2021/12/31 12:22:09;;;;;;;2.63;2.43;;;;;;;;;;5080466;28;20164;-57
2021/12/31 12:24:36;;;;;;;4.07;2.30;;;;;;;;;;5080766;28;20177;-57
2021/12/31 12:27:05;;;;;;;2.57;2.37;;;;;;;;;;5072627;28;20181;-56
2021/12/31 12:29:31;;;;;;;2.40;2.20;;;;;;;;;;5072709;28;20188;-57
2021/12/31 12:32:10;;;;;;;2.77;2.10;;;;;;;;;;5068851;28;20646;-57
2021/12/31 12:34:36;;;;;;;3.93;2.37;;;;;;;;;;5075190;28;20239;-57
2021/12/31 12:37:02;;;;;;;2.20;2.00;;;;;;;;;;5072318;28;20189;-56
2021/12/31 12:39:28;;;;;;;2.13;2.00;;;;;;;;;;5078113;28;20268;-56
2021/12/31 12:41:55;;;;;;;2.33;1.80;;;;;;;;;;5070771;28;20176;-57
2021/12/31 12:44:21;;;;;;;3.73;2.60;;;;;;;;;;5072554;28;20205;-57
2021/12/31 12:47:05;;;;;;;2.30;2.10;;;;;;;;;;5071911;28;20181;-57
2021/12/31 12:49:31;;;;;;;3.43;2.10;;;;;;;;;;5070712;28;20186;-57
2021/12/31 12:52:11;;;;;;;2.83;2.17;;;;;;;;;;5071145;28;20191;-57
2021/12/31 12:54:37;;;;;;;2.73;2.30;;;;;;;;;;5050742;28;20209;-57
2021/12/31 12:57:03;;;;;;;2.97;2.10;;;;;;;;;;5047608;28;20199;-57
2021/12/31 12:59:29;;;;;;;4.00;2.53;;;;;;;;;;5048828;28;20186;-57
2021/12/31 13:01:57;;;;;;;2.40;2.13;;;;;;;;;;5046599;28;20557;-57
2021/12/31 13:04:24;;;;;;;3.37;2.40;;;;;;;;;;5044271;28;20175;-57
2021/12/31 13:07:02;;;;;;;3.07;2.30;;;;;;;;;;5050229;28;20258;-57
2021/12/31 13:09:31;;;;;;;2.93;2.00;;;;;;;;;;5049647;28;20174;-57
2021/12/31 13:12:00;;;;;;;2.50;2.30;;;;;;;;;;5049461;28;20187;-57
2021/12/31 13:14:29;;;;;;;2.53;2.33;;;;;;;;;;5032166;28;20225;-57
2021/12/31 13:16:57;;;;;;;2.73;2.20;;;;;;;;;;5050120;28;20213;-56
2021/12/31 13:19:33;;;;;;;2.50;2.20;;;;;;;;;;5047605;28;20185;-57
2021/12/31 13:22:05;;;;;;;2.37;2.17;;;;;;;;;;5046689;28;20173;-57
2021/12/31 13:24:31;;;;;;;2.50;2.30;;;;;;;;;;5052739;28;20182;-57
2021/12/31 13:27:03;;;;;;;5.40;2.50;;;;;;;;;;5048048;28;20177;-57
2021/12/31 13:29:33;;;;;;;2.85;2.50;;;;;;;;;;5046399;28;21022;-57
2021/12/31 13:32:16;;;;;;;2.30;2.10;;;;;;;;;;5053090;28;20318;-57
2021/12/31 13:34:42;;;;;;;2.67;2.17;;;;;;;;;;5053556;28;20258;-57
2021/12/31 13:37:08;;;;;;;2.57;2.37;;;;;;;;;;5048262;28;20183;-57
2021/12/31 13:39:43;;;;;;;2.37;2.17;;;;;;;;;;5052607;28;20702;-57
2021/12/31 13:42:15;;;;;;;2.40;2.20;;;;;;;;;;5031323;28;20190;-57
2021/12/31 13:44:47;;;;;;;4.70;2.70;;;;;;;;;;5047168;28;20185;-57
2021/12/31 13:47:15;;;;;;;4.20;2.10;;;;;;;;;;5034695;28;20220;-57
2021/12/31 13:49:47;;;;;;;3.87;2.20;;;;;;;;;;5061592;28;20191;-57
2021/12/31 13:52:17;;;;;;;2.70;2.50;;;;;;;;;;5060088;28;20321;-57
2021/12/31 13:54:44;;;;;;;2.57;2.30;;;;;;;;;;5072019;28;20203;-57
2021/12/31 13:57:17;;;;;;;2.40;2.13;;;;;;;;;;5060668;28;20188;-56
2021/12/31 13:59:43;;;;;;;3.37;2.07;;;;;;;;;;5053078;28;20402;-57
2021/12/31 14:02:10;;;;;;;3.77;2.20;;;;;;;;;;5065430;28;20184;-56
2021/12/31 14:04:54;;;;;;;2.47;2.27;;;;;;;;;;5058658;28;20192;-56
2021/12/31 14:07:30;;;;;;;3.03;2.20;;;;;;;;;;5063801;28;20310;-56
2021/12/31 14:10:01;;;;;;;4.03;2.70;;;;;;;;;;5064850;28;20772;-56
2021/12/31 14:12:27;;;;;;;3.17;2.87;;;;;;;;;;5060796;28;20734;-56
2021/12/31 14:14:54;;;;;;;3.13;2.63;;;;;;;;;;5058400;28;20204;-56
2021/12/31 14:17:20;;;;;;;2.97;2.57;;;;;;;;;;5055545;28;20211;-56
2021/12/31 14:19:46;;;;;;;3.10;2.80;;;;;;;;;;5064160;28;20191;-56
2021/12/31 14:22:13;;;;;;;3.83;2.43;;;;;;;;;;5062868;28;20536;-56
2021/12/31 14:24:39;;;;;;;6.90;2.93;;;;;;;;;;5056456;28;20264;-56
2021/12/31 14:27:09;;;;;;;2.93;2.60;;;;;;;;;;5062648;28;20616;-56
2021/12/31 14:29:36;;;;;;;3.17;2.70;;;;;;;;;;5045041;28;20184;-56
2021/12/31 14:32:06;;;;;;;4.53;2.67;;;;;;;;;;5066336;28;20172;-56
2021/12/31 14:34:32;;;;;;;4.53;2.63;;;;;;;;;;5059624;28;20255;-56
2021/12/31 14:37:03;;;;;;;3.03;2.70;;;;;;;;;;5055876;28;20603;-56
2021/12/31 14:39:29;;;;;;;3.50;2.90;;;;;;;;;;5058968;28;20203;-56
2021/12/31 14:41:59;;;;;;;4.60;3.33;;;;;;;;;;5061433;28;20559;-56
2021/12/31 14:44:25;;;;;;;3.57;2.93;;;;;;;;;;5058950;28;20540;-56
2021/12/31 14:46:53;;;;;;;3.77;3.27;;;;;;;;;;5061249;28;20643;-56
2021/12/31 14:49:21;;;;;;;4.50;3.10;;;;;;;;;;5063876;28;20222;-56